createdAt,value
2023-04-14T00:02:07.012Z,99048.78
2023-04-14T00:04:34.244Z,99110.44
2023-04-14T00:07:01.882Z,99078.53
2023-04-14T00:09:28.704Z,99112.63
2023-04-14T00:11:56.784Z,99079.03
2023-04-14T00:14:23.794Z,99081.63
2023-04-14T00:16:50.988Z,99037.16
2023-04-14T00:19:17.848Z,99053.84
2023-04-14T00:21:44.709Z,99067.66
2023-04-14T00:24:11.547Z,99092.31
2023-04-14T00:26:38.452Z,99102.56
2023-04-14T00:29:05.344Z,99100.22
2023-04-14T00:31:32.442Z,99096.84
2023-04-14T00:33:59.498Z,99113.19
2023-04-14T00:36:26.312Z,99100.72
2023-04-14T00:38:53.149Z,99132.31
2023-04-14T00:41:19.998Z,99081.91
2023-04-14T00:43:46.915Z,99077.59
2023-04-14T00:46:17.512Z,99131.97
2023-04-14T00:48:45.150Z,99119.72
2023-04-14T00:51:12.335Z,99119.69
2023-04-14T00:53:40.166Z,99057.88
2023-04-14T00:56:08.351Z,99063.34
2023-04-14T00:58:36.043Z,99095.50
2023-04-14T01:01:03.386Z,99094.25
2023-04-14T01:03:30.408Z,99088.56
2023-04-14T01:05:57.710Z,99093.50
2023-04-14T01:08:25.905Z,99083.00
2023-04-14T01:11:14.393Z,99136.13
2023-04-14T01:13:59.809Z,99145.25
2023-04-14T01:16:32.647Z,99091.50
2023-04-14T01:19:14.543Z,99116.59
2023-04-14T01:21:44.150Z,99082.47
2023-04-14T01:24:17.042Z,99140.13
2023-04-14T01:26:45.591Z,99125.31
2023-04-14T01:29:31.440Z,99132.22
2023-04-14T01:31:58.225Z,99140.72
2023-04-14T01:34:43.820Z,99138.59
2023-04-14T01:37:30.576Z,99122.13
2023-04-14T01:40:03.304Z,99138.13
2023-04-14T01:42:34.139Z,99108.88
2023-04-14T01:45:07.120Z,99104.38
2023-04-14T01:47:35.903Z,99122.22
2023-04-14T01:50:05.694Z,99111.88
2023-04-14T01:52:33.445Z,99140.19
2023-04-14T01:55:05.972Z,99093.03
2023-04-14T01:57:38.922Z,99088.97
2023-04-14T02:00:07.972Z,99154.53
2023-04-14T02:02:37.923Z,99113.28
2023-04-14T02:05:07.376Z,99072.19
2023-04-14T02:07:35.477Z,99150.09
2023-04-14T02:10:06.690Z,99092.81
2023-04-14T02:12:36.505Z,99070.69
2023-04-14T02:15:04.256Z,99138.81
2023-04-14T02:17:31.242Z,99082.88
2023-04-14T02:19:59.660Z,99115.16
2023-04-14T02:22:34.871Z,99127.09
2023-04-14T02:25:02.362Z,99111.09
2023-04-14T02:27:50.117Z,99100.28
2023-04-14T02:30:24.674Z,99090.13
2023-04-14T02:33:05.788Z,99153.28
2023-04-14T02:35:40.302Z,99079.03
2023-04-14T02:38:43.854Z,99145.94
2023-04-14T02:41:17.314Z,99152.59
2023-04-14T02:43:53.264Z,99110.25
2023-04-14T02:46:22.585Z,99149.16
2023-04-14T02:48:52.078Z,99145.09
2023-04-14T02:51:20.750Z,99083.44
2023-04-14T02:53:48.805Z,99174.84
2023-04-14T02:56:19.234Z,99087.41
2023-04-14T02:58:46.963Z,99137.63
2023-04-14T03:01:15.832Z,99173.78
2023-04-14T03:03:43.425Z,99137.28
2023-04-14T03:06:11.952Z,99147.28
2023-04-14T03:08:40.466Z,99131.72
2023-04-14T03:11:08.406Z,99141.25
2023-04-14T03:13:38.166Z,99110.38
2023-04-14T03:16:06.347Z,99177.09
2023-04-14T03:18:34.650Z,99174.09
2023-04-14T03:21:02.608Z,99124.00
2023-04-14T03:23:30.692Z,99185.06
2023-04-14T03:25:58.335Z,99169.44
2023-04-14T03:28:29.584Z,99158.47
2023-04-14T03:31:01.131Z,99141.28
2023-04-14T03:33:30.185Z,99181.31
2023-04-14T03:36:01.710Z,99181.56
2023-04-14T03:38:29.530Z,99168.84
2023-04-14T03:41:00.143Z,99172.59
2023-04-14T03:43:33.640Z,99152.16
2023-04-14T03:46:00.776Z,99145.22
2023-04-14T03:48:34.370Z,99118.47
2023-04-14T03:51:04.298Z,99194.28
2023-04-14T03:53:35.118Z,99180.78
2023-04-14T03:56:04.431Z,99204.97
2023-04-14T03:58:33.349Z,99120.81
2023-04-14T04:01:02.347Z,99176.19
2023-04-14T04:03:30.224Z,99167.25
2023-04-14T04:05:57.175Z,99119.59
2023-04-14T04:08:24.715Z,99183.03
2023-04-14T04:10:52.655Z,99148.41
2023-04-14T04:13:21.637Z,99143.22
2023-04-14T04:15:52.045Z,99204.94
2023-04-14T04:18:20.948Z,99222.41
2023-04-14T04:20:49.671Z,99201.00
2023-04-14T04:23:20.918Z,99178.69
2023-04-14T04:25:48.622Z,99161.41
2023-04-14T04:28:15.580Z,99188.19
2023-04-14T04:30:45.142Z,99178.34
2023-04-14T04:33:14.222Z,99183.41
2023-04-14T04:35:42.718Z,99224.31
2023-04-14T04:38:11.524Z,99211.22
2023-04-14T04:40:38.942Z,99177.59
2023-04-14T04:43:05.936Z,99182.41
2023-04-14T04:45:44.817Z,99242.81
2023-04-14T04:48:11.561Z,99211.34
2023-04-14T04:50:38.314Z,99216.66
2023-04-14T04:53:05.169Z,99213.69
2023-04-14T04:55:31.898Z,99186.50
2023-04-14T04:57:58.690Z,99192.34
2023-04-14T05:00:26.699Z,99165.28
2023-04-14T05:02:53.504Z,99246.69
2023-04-14T05:05:20.618Z,99231.44
2023-04-14T05:07:47.549Z,99202.44
2023-04-14T05:10:14.434Z,99209.75
2023-04-14T05:12:41.271Z,99253.25
2023-04-14T05:15:11.254Z,99249.44
2023-04-14T05:17:38.936Z,99206.50
2023-04-14T05:20:06.387Z,99243.47
2023-04-14T05:22:33.403Z,99268.94
2023-04-14T05:25:00.176Z,99229.22
2023-04-14T05:27:26.932Z,99206.88
2023-04-14T05:29:53.854Z,99208.09
2023-04-14T05:32:22.359Z,99240.66
2023-04-14T05:34:49.289Z,99251.22
2023-04-14T05:37:16.118Z,99272.31
2023-04-14T05:39:42.947Z,99259.72
2023-04-14T05:42:09.751Z,99253.34
2023-04-14T05:44:36.623Z,99264.34
2023-04-14T05:47:03.929Z,99259.31
2023-04-14T05:49:30.848Z,99281.94
2023-04-14T05:51:57.939Z,99256.19
2023-04-14T05:54:24.734Z,99268.06
2023-04-14T05:56:51.462Z,99275.03
2023-04-14T05:59:18.311Z,99257.94
2023-04-14T06:01:45.144Z,99290.75
2023-04-14T06:04:12.141Z,99290.31
2023-04-14T06:06:39.193Z,99333.19
2023-04-14T06:09:05.947Z,99318.03
2023-04-14T06:11:32.825Z,99263.25
2023-04-14T06:14:02.275Z,99347.97
2023-04-14T06:16:29.179Z,99323.25
2023-04-14T06:18:55.967Z,99328.53
2023-04-14T06:21:22.813Z,99283.66
2023-04-14T06:23:49.639Z,99321.88
2023-04-14T06:26:16.601Z,99330.31
2023-04-14T06:28:44.101Z,99338.72
2023-04-14T06:31:11.367Z,99343.47
2023-04-14T06:33:38.210Z,99328.03
2023-04-14T06:36:05.208Z,99342.97
2023-04-14T06:38:32.001Z,99337.75
2023-04-14T06:40:58.813Z,99331.13
2023-04-14T06:43:25.841Z,99362.88
2023-04-14T06:45:52.692Z,99285.06
2023-04-14T06:48:19.565Z,99386.47
2023-04-14T06:50:56.316Z,99359.22
2023-04-14T06:53:26.207Z,99393.47
2023-04-14T06:55:59.746Z,99396.31
2023-04-14T06:58:27.769Z,99318.81
2023-04-14T07:01:02.234Z,99360.69
2023-04-14T07:03:30.927Z,99350.34
2023-04-14T07:06:10.244Z,99336.19
2023-04-14T07:08:37.888Z,99411.16
2023-04-14T07:11:07.116Z,99414.09
2023-04-14T07:13:34.548Z,99394.69
2023-04-14T07:16:02.646Z,99398.81
2023-04-14T07:18:32.917Z,99361.34
2023-04-14T07:21:00.394Z,99411.88
2023-04-14T07:23:28.002Z,99357.19
2023-04-14T07:25:59.466Z,99335.09
2023-04-14T07:28:28.375Z,99406.09
2023-04-14T07:30:55.264Z,99384.06
2023-04-14T07:33:25.517Z,99352.56
2023-04-14T07:36:02.348Z,99385.78
2023-04-14T07:38:30.219Z,99396.22
2023-04-14T07:40:57.684Z,99369.16
2023-04-14T07:43:24.876Z,99423.59
2023-04-14T07:45:52.666Z,99381.25
2023-04-14T07:48:21.630Z,99379.47
2023-04-14T07:50:50.261Z,99446.75
2023-04-14T07:53:17.159Z,99387.03
2023-04-14T07:55:43.942Z,99393.69
2023-04-14T07:58:15.408Z,99443.53
2023-04-14T08:00:42.532Z,99448.19
2023-04-14T08:03:10.163Z,99414.56
2023-04-14T08:05:38.026Z,99421.72
2023-04-14T08:08:05.087Z,99438.81
2023-04-14T08:10:31.958Z,99417.97
2023-04-14T08:12:59.139Z,99459.22
2023-04-14T08:15:26.687Z,99445.25
2023-04-14T08:17:53.471Z,99450.09
2023-04-14T08:20:20.199Z,99421.69
2023-04-14T08:22:46.919Z,99448.53
2023-04-14T08:25:13.917Z,99464.34
2023-04-14T08:27:40.936Z,99461.50
2023-04-14T08:30:09.607Z,99483.47
2023-04-14T08:32:37.715Z,99418.00
2023-04-14T08:35:38.249Z,99477.81
2023-04-14T08:37:51.392Z,99453.84
2023-04-14T08:40:19.656Z,99463.09
2023-04-14T08:42:46.401Z,99511.16
2023-04-14T08:45:13.564Z,99476.50
2023-04-14T08:47:41.377Z,99475.72
2023-04-14T08:50:16.608Z,99521.50
2023-04-14T08:52:45.967Z,99488.88
2023-04-14T08:55:14.280Z,99474.47
2023-04-14T08:57:43.893Z,99513.22
2023-04-14T09:00:11.329Z,99507.25
2023-04-14T09:02:40.742Z,99530.03
2023-04-14T09:05:08.707Z,99516.47
2023-04-14T09:07:36.433Z,99502.22
2023-04-14T09:10:03.994Z,99493.13
2023-04-14T09:12:32.414Z,99555.31
2023-04-14T09:14:59.463Z,99506.66
2023-04-14T09:17:28.257Z,99562.09
2023-04-14T09:20:36.841Z,99528.38
2023-04-14T09:22:42.088Z,99494.75
2023-04-14T09:25:10.746Z,99541.69
2023-04-14T09:27:38.120Z,99539.84
2023-04-14T09:30:05.925Z,99534.03
2023-04-14T09:32:32.961Z,99570.75
2023-04-14T09:34:59.809Z,99565.88
2023-04-14T09:37:26.608Z,99583.34
2023-04-14T09:39:55.862Z,99574.38
2023-04-14T09:42:41.307Z,99562.53
2023-04-14T09:45:08.704Z,99596.03
2023-04-14T09:47:35.999Z,99569.13
2023-04-14T09:50:04.358Z,99585.97
2023-04-14T09:52:37.542Z,99625.28
2023-04-14T09:55:11.954Z,99625.31
2023-04-14T09:57:42.444Z,99593.50
2023-04-14T10:00:24.283Z,99595.66
2023-04-14T10:02:56.257Z,99612.53
2023-04-14T10:05:34.597Z,99586.63
2023-04-14T10:08:05.941Z,99631.53
2023-04-14T10:10:33.105Z,99629.81
2023-04-14T10:13:00.631Z,99628.00
2023-04-14T10:15:28.339Z,99591.59
2023-04-14T10:17:56.472Z,99603.16
2023-04-14T10:23:05.322Z,99639.66
2023-04-14T10:25:32.477Z,99605.53
2023-04-14T10:27:59.496Z,99622.00
2023-04-14T10:30:26.301Z,99636.44
2023-04-14T10:32:53.618Z,99683.03
2023-04-14T10:35:21.256Z,99674.38
2023-04-14T10:37:52.158Z,99660.16
2023-04-14T10:40:19.084Z,99645.03
2023-04-14T10:42:54.577Z,99695.56
2023-04-14T10:45:21.841Z,99687.25
2023-04-14T10:47:50.068Z,99699.28
2023-04-14T10:50:18.687Z,99679.75
2023-04-14T10:52:56.285Z,99703.91
2023-04-14T10:55:28.136Z,99706.88
2023-04-14T10:58:09.023Z,99714.53
2023-04-14T11:00:38.616Z,99652.03
2023-04-14T11:03:11.767Z,99703.78
2023-04-14T11:05:46.024Z,99703.06
2023-04-14T11:08:15.040Z,99705.91
2023-04-14T11:10:48.582Z,99708.28
2023-04-14T11:13:17.581Z,99680.50
2023-04-14T11:16:07.334Z,99711.47
2023-04-14T11:18:37.917Z,99683.16
2023-04-14T11:21:05.878Z,99670.75
2023-04-14T11:23:33.672Z,99723.03
2023-04-14T11:26:00.886Z,99673.59
2023-04-14T11:28:35.400Z,99729.28
2023-04-14T11:31:05.496Z,99727.03
2023-04-14T11:33:40.006Z,99708.66
2023-04-14T11:36:09.821Z,99695.03
2023-04-14T11:38:43.246Z,99745.25
2023-04-14T11:41:10.153Z,99748.28
2023-04-14T11:43:46.561Z,99713.97
2023-04-14T11:46:13.499Z,99696.25
2023-04-14T11:48:40.317Z,99698.63
2023-04-14T11:51:06.966Z,99760.47
2023-04-14T11:53:34.735Z,99730.75
2023-04-14T11:56:01.537Z,99737.78
2023-04-14T11:58:29.159Z,99741.16
2023-04-14T12:00:57.826Z,99768.91
2023-04-14T12:03:35.832Z,99778.56
2023-04-14T12:06:03.587Z,99770.44
2023-04-14T12:08:31.649Z,99774.06
2023-04-14T12:10:59.313Z,99770.78
2023-04-14T12:13:27.244Z,99739.84
2023-04-14T12:15:54.627Z,99730.25
2023-04-14T12:18:22.289Z,99752.88
2023-04-14T12:20:53.671Z,99753.72
2023-04-14T12:23:21.434Z,99753.47
2023-04-14T12:25:52.756Z,99755.53
2023-04-14T12:28:30.477Z,99759.81
2023-04-14T12:31:01.620Z,99761.81
2023-04-14T12:33:29.263Z,99776.03
2023-04-14T12:36:10.300Z,99807.56
2023-04-14T12:38:37.075Z,99743.97
2023-04-14T12:41:03.907Z,99758.44
2023-04-14T12:43:37.560Z,99819.75
2023-04-14T12:46:05.575Z,99762.81
2023-04-14T12:48:44.900Z,99829.34
2023-04-14T12:51:13.800Z,99823.78
2023-04-14T12:53:41.554Z,99782.56
2023-04-14T12:56:10.504Z,99840.59
2023-04-14T12:58:39.260Z,99837.03
2023-04-14T13:01:07.886Z,99841.25
2023-04-14T13:03:47.495Z,99818.06
2023-04-14T13:06:18.751Z,99852.59
2023-04-14T13:08:50.271Z,99818.38
2023-04-14T13:11:18.513Z,99861.63
2023-04-14T13:13:45.861Z,99857.91
2023-04-14T13:16:17.992Z,99805.34
2023-04-14T13:18:47.217Z,99866.09
2023-04-14T13:21:14.167Z,99839.66
2023-04-14T13:23:41.625Z,99830.22
2023-04-14T13:26:08.627Z,99842.53
2023-04-14T13:28:36.681Z,99843.31
2023-04-14T13:31:03.419Z,99840.50
2023-04-14T13:33:30.174Z,99853.66
2023-04-14T13:35:57.500Z,99833.97
2023-04-14T13:38:24.285Z,99813.75
2023-04-14T13:40:50.931Z,99801.34
2023-04-14T13:43:19.086Z,99874.06
2023-04-14T13:45:46.901Z,99892.84
2023-04-14T13:48:14.048Z,99875.69
2023-04-14T13:50:40.787Z,99920.75
2023-04-14T13:53:07.547Z,99860.97
2023-04-14T13:55:36.350Z,99935.03
2023-04-14T13:58:03.865Z,99912.28
2023-04-14T14:00:30.631Z,99893.03
2023-04-14T14:02:57.715Z,99926.78
2023-04-14T14:05:24.822Z,99899.25
2023-04-14T14:07:51.668Z,99861.44
2023-04-14T14:10:18.490Z,99868.06
2023-04-14T14:12:45.568Z,99895.63
2023-04-14T14:15:12.464Z,99949.59
2023-04-14T14:17:39.258Z,99922.78
2023-04-14T14:20:07.685Z,99960.78
2023-04-14T14:22:34.388Z,99939.03
2023-04-14T14:25:10.857Z,99932.09
2023-04-14T14:27:47.586Z,99916.34
2023-04-14T14:30:14.418Z,99907.88
2023-04-14T14:32:41.245Z,99959.16
2023-04-14T14:35:08.365Z,99970.66
2023-04-14T14:37:35.117Z,99929.66
2023-04-14T14:40:01.882Z,99916.34
2023-04-14T14:42:28.674Z,99929.81
2023-04-14T14:44:55.488Z,99941.44
2023-04-14T14:47:22.262Z,99948.66
2023-04-14T14:49:57.102Z,99912.41
2023-04-14T14:52:34.439Z,99968.31
2023-04-14T14:55:01.940Z,99986.38
2023-04-14T14:57:29.169Z,99940.19
2023-04-14T14:59:56.018Z,99987.34
2023-04-14T15:02:22.947Z,99967.47
2023-04-14T15:04:49.897Z,99917.19
2023-04-14T15:07:16.785Z,100002.25
2023-04-14T15:09:43.624Z,99942.13
2023-04-14T15:12:10.311Z,99943.91
2023-04-14T15:14:37.139Z,99927.31
2023-04-14T15:17:03.836Z,99913.19
2023-04-14T15:19:30.649Z,99934.25
2023-04-14T15:21:57.355Z,99973.38
2023-04-14T15:24:24.040Z,99962.31
2023-04-14T15:26:50.980Z,99945.91
2023-04-14T15:29:19.458Z,99947.00
2023-04-14T15:31:46.246Z,99969.53
2023-04-14T15:34:12.968Z,99981.19
2023-04-14T15:36:39.766Z,99997.63
2023-04-14T15:39:06.634Z,99955.78
2023-04-14T15:41:33.366Z,99957.97
2023-04-14T15:44:00.296Z,99983.66
2023-04-14T15:46:27.446Z,99953.41
2023-04-14T15:48:54.163Z,100009.91
2023-04-14T15:51:21.024Z,99997.91
2023-04-14T15:53:47.788Z,100000.78
2023-04-14T15:56:14.545Z,100024.81
2023-04-14T15:58:41.360Z,99905.03
2023-04-14T16:01:08.461Z,99959.31
2023-04-14T16:03:36.260Z,99985.09
2023-04-14T16:06:04.371Z,99998.69
2023-04-14T16:08:31.215Z,99953.63
2023-04-14T16:10:58.112Z,100049.53
2023-04-14T16:13:24.986Z,99919.53
2023-04-14T16:15:51.782Z,100032.94
2023-04-14T16:18:18.548Z,99970.97
2023-04-14T16:20:46.561Z,100008.31
2023-04-14T16:23:13.386Z,99980.72
2023-04-14T16:25:40.142Z,100001.00
2023-04-14T16:28:06.927Z,100006.56
2023-04-14T16:30:33.914Z,100001.97
2023-04-14T16:33:00.719Z,99990.06
2023-04-14T16:35:27.500Z,100009.22
2023-04-14T16:37:55.137Z,100091.75
2023-04-14T16:40:21.989Z,100092.63
2023-04-14T16:42:49.008Z,100024.00
2023-04-14T16:45:16.043Z,99998.59
2023-04-14T16:47:42.826Z,100035.47
2023-04-14T16:50:09.767Z,100057.59
2023-04-14T16:52:36.493Z,100080.06
2023-04-14T16:55:03.332Z,100090.75
2023-04-14T16:57:30.101Z,100085.09
2023-04-14T16:59:56.867Z,100071.19
2023-04-14T17:02:23.985Z,100033.00
2023-04-14T17:04:51.315Z,100063.69
2023-04-14T17:07:18.150Z,100052.66
2023-04-14T17:09:44.967Z,100092.25
2023-04-14T17:12:11.893Z,100077.66
2023-04-14T17:14:38.730Z,100079.59
2023-04-14T17:17:05.548Z,100057.69
2023-04-14T17:19:32.390Z,100079.88
2023-04-14T17:21:59.585Z,100073.38
2023-04-14T17:24:26.636Z,100144.88
2023-04-14T17:26:53.505Z,100108.91
2023-04-14T17:29:20.751Z,100113.03
2023-04-14T17:31:48.324Z,100089.22
2023-04-14T17:34:18.561Z,100122.84
2023-04-14T17:36:45.834Z,100111.13
2023-04-14T17:39:13.841Z,100139.25
2023-04-14T17:41:40.579Z,100141.50
2023-04-14T17:44:07.330Z,100142.91
2023-04-14T17:46:34.050Z,100129.84
2023-04-14T17:49:04.201Z,100180.53
2023-04-14T17:51:31.737Z,100199.22
2023-04-14T17:53:59.099Z,100130.69
2023-04-14T17:56:26.114Z,100153.50
2023-04-14T17:58:53.227Z,100164.59
2023-04-14T18:01:19.948Z,100144.88
2023-04-14T18:03:46.803Z,100189.50
2023-04-14T18:06:13.703Z,100226.28
2023-04-14T18:08:41.317Z,100181.16
2023-04-14T18:11:28.292Z,100236.16
2023-04-14T18:13:55.060Z,100176.72
2023-04-14T18:16:22.264Z,100223.41
2023-04-14T18:18:49.387Z,100167.16
2023-04-14T18:21:16.755Z,100160.03
2023-04-14T18:23:44.139Z,100230.13
2023-04-14T18:28:53.666Z,100237.06
2023-04-14T18:31:21.599Z,100229.47
2023-04-14T18:33:49.193Z,100262.16
2023-04-14T18:36:16.939Z,100280.31
2023-04-14T18:38:43.863Z,100220.13
2023-04-14T18:41:13.372Z,100278.31
2023-04-14T18:46:35.107Z,100251.63
2023-04-14T18:51:43.448Z,100265.19
2023-04-14T18:54:10.759Z,100244.94
2023-04-14T18:56:38.208Z,100299.88
2023-04-14T18:59:07.336Z,100270.59
2023-04-14T19:01:36.093Z,100316.09
2023-04-14T19:04:04.229Z,100275.06
2023-04-14T19:06:31.582Z,100290.59
2023-04-14T19:08:58.457Z,100251.56
2023-04-14T19:11:25.343Z,100271.84
2023-04-14T19:13:54.212Z,100278.22
2023-04-14T19:16:23.446Z,100293.16
2023-04-14T19:18:50.329Z,100300.97
2023-04-14T19:21:17.656Z,100303.50
2023-04-14T19:23:47.112Z,100303.78
2023-04-14T19:28:57.757Z,100304.81
2023-04-14T19:31:28.531Z,100311.91
2023-04-14T19:33:56.477Z,100297.75
2023-04-14T19:36:23.292Z,100353.19
2023-04-14T19:38:50.100Z,100315.00
2023-04-14T19:41:16.812Z,100353.63
2023-04-14T19:43:43.844Z,100345.50
2023-04-14T19:46:13.177Z,100346.22
2023-04-14T19:48:40.536Z,100307.06
2023-04-14T19:51:07.453Z,100331.56
2023-04-14T19:53:34.557Z,100335.88
2023-04-14T19:56:02.175Z,100319.13
2023-04-14T19:58:30.671Z,100355.06
2023-04-14T20:00:57.672Z,100394.44
2023-04-14T20:05:54.943Z,100414.97
2023-04-14T20:08:22.949Z,100381.63
2023-04-14T20:10:52.691Z,100392.84
2023-04-14T20:13:21.455Z,100373.84
2023-04-14T20:15:49.450Z,100351.19
2023-04-14T20:18:19.272Z,100393.47
2023-04-14T20:20:49.639Z,100420.09
2023-04-14T20:23:16.426Z,100391.72
2023-04-14T20:25:44.161Z,100373.84
2023-04-14T20:28:10.998Z,100401.78
2023-04-14T20:30:37.949Z,100402.84
2023-04-14T20:33:05.909Z,100391.25
2023-04-14T20:35:36.137Z,100441.59
2023-04-14T20:38:03.148Z,100399.03
2023-04-14T20:40:30.347Z,100380.28
2023-04-14T20:42:57.385Z,100399.22
2023-04-14T20:45:24.796Z,100449.56
2023-04-14T20:47:51.731Z,100401.03
2023-04-14T20:50:18.930Z,100408.28
2023-04-14T20:52:45.903Z,100322.06
2023-04-14T20:55:15.917Z,100331.41
2023-04-14T20:57:42.869Z,100450.97
2023-04-14T21:00:15.501Z,100382.16
2023-04-14T21:02:45.693Z,100442.69
2023-04-14T21:05:12.937Z,100421.06
2023-04-14T21:07:43.794Z,100414.38
2023-04-14T21:10:11.569Z,100453.78
2023-04-14T21:14:36.044Z,100478.88
2023-04-14T21:15:49.143Z,100391.84
2023-04-14T21:18:12.506Z,100467.09
2023-04-14T21:20:39.962Z,100446.03
2023-04-14T21:23:06.719Z,100460.66
2023-04-14T21:25:35.345Z,100448.88
2023-04-14T21:28:02.479Z,100462.00
2023-04-14T21:30:29.201Z,100424.56
2023-04-14T21:32:56.013Z,100453.72
2023-04-14T21:35:22.901Z,100480.94
2023-04-14T21:37:49.626Z,100462.19
2023-04-14T21:40:16.309Z,100462.41
2023-04-14T21:42:43.071Z,100506.88
2023-04-14T21:45:10.780Z,100448.19
2023-04-14T21:47:37.558Z,100492.13
2023-04-14T21:50:04.650Z,100484.13
2023-04-14T21:52:31.397Z,100462.09
2023-04-14T21:54:58.157Z,100484.16
2023-04-14T21:57:48.507Z,100546.50
2023-04-14T22:00:17.907Z,100538.22
2023-04-14T22:02:45.358Z,100487.81
2023-04-14T22:05:13.087Z,100531.53
2023-04-14T22:07:40.001Z,100541.13
2023-04-14T22:10:07.519Z,100525.81
2023-04-14T22:12:36.297Z,100544.63
2023-04-14T22:15:08.740Z,100534.53
2023-04-14T22:17:36.867Z,100517.47
2023-04-14T22:20:06.146Z,100545.09
2023-04-14T22:22:33.132Z,100548.66
2023-04-14T22:25:00.255Z,100573.41
2023-04-14T22:27:27.228Z,100576.31
2023-04-14T22:29:54.180Z,100503.78
2023-04-14T22:32:20.969Z,100557.88
2023-04-14T22:34:47.706Z,100580.19
2023-04-14T22:37:14.753Z,100588.88
2023-04-14T22:39:41.998Z,100554.75
2023-04-14T22:42:08.758Z,100554.00
2023-04-14T22:44:35.586Z,100581.50
2023-04-14T22:47:02.413Z,100584.28
2023-04-14T22:49:29.120Z,100563.72
2023-04-14T22:51:56.573Z,100619.22
2023-04-14T22:54:23.372Z,100594.69
2023-04-14T22:56:50.065Z,100590.44
2023-04-14T22:59:16.951Z,100578.50
2023-04-14T23:01:43.777Z,100552.16
2023-04-14T23:04:10.819Z,100593.34
2023-04-14T23:06:37.942Z,100602.19
2023-04-14T23:09:05.722Z,100620.72
2023-04-14T23:11:32.786Z,100640.09
2023-04-14T23:13:59.550Z,100574.31
2023-04-14T23:16:26.661Z,100619.59
2023-04-14T23:18:53.533Z,100593.06
2023-04-14T23:21:22.510Z,100616.13
2023-04-14T23:23:52.593Z,100597.13
2023-04-14T23:26:21.371Z,100630.47
2023-04-14T23:28:48.462Z,100622.53
2023-04-14T23:31:15.337Z,100619.81
2023-04-14T23:33:42.091Z,100622.94
2023-04-14T23:36:08.795Z,100632.34
2023-04-14T23:38:35.596Z,100640.09
2023-04-14T23:41:02.408Z,100670.69
2023-04-14T23:43:29.299Z,100598.88
2023-04-14T23:45:56.101Z,100655.78
2023-04-14T23:48:22.850Z,100689.75
2023-04-14T23:51:00.293Z,100675.38
2023-04-14T23:53:36.354Z,100647.31
2023-04-14T23:56:04.258Z,100701.16
2023-04-14T23:58:31.859Z,100658.19
